createdAt,value
2018-03-11T00:00:02.832Z,13.92
2018-03-11T00:00:43.459Z,13.95
2018-03-11T00:01:23.937Z,13.85
2018-03-11T00:02:04.510Z,14
2018-03-11T00:02:44.916Z,13.97
2018-03-11T00:03:25.437Z,13.84
2018-03-11T00:04:06.059Z,13.91
2018-03-11T00:04:46.427Z,13.91
2018-03-11T00:05:27.010Z,13.97
2018-03-11T00:06:07.458Z,13.99
2018-03-11T00:06:47.934Z,13.91
2018-03-11T00:07:28.344Z,14.02
2018-03-11T00:08:08.872Z,14.03
2018-03-11T00:08:49.392Z,14.07
2018-03-11T00:09:29.950Z,14.02
2018-03-11T00:10:10.542Z,13.97
2018-03-11T00:10:50.976Z,14.02
2018-03-11T00:11:31.458Z,14.04
2018-03-11T00:12:11.983Z,14.04
2018-03-11T00:12:52.428Z,14.04
2018-03-11T00:13:32.984Z,14.04
2018-03-11T00:14:13.442Z,14.03
2018-03-11T00:14:53.905Z,13.99
2018-03-11T00:15:34.487Z,13.99
2018-03-11T00:16:15.033Z,14.06
2018-03-11T00:16:55.473Z,14.12
2018-03-11T00:17:35.971Z,14.07
2018-03-11T00:18:16.603Z,14.02
2018-03-11T00:18:57.061Z,14
2018-03-11T00:19:37.587Z,14.09
2018-03-11T00:20:18.054Z,14.09
2018-03-11T00:20:58.579Z,14.06
2018-03-11T00:21:39.230Z,14.03
2018-03-11T00:22:19.681Z,14.06
2018-03-11T00:23:00.207Z,13.96
2018-03-11T00:23:40.751Z,14.09
2018-03-11T00:24:21.205Z,13.97
2018-03-11T00:25:01.782Z,13.96
2018-03-11T00:25:42.230Z,13.95
2018-03-11T00:26:22.734Z,13.96
2018-03-11T00:27:03.261Z,13.99
2018-03-11T00:27:43.692Z,13.95
2018-03-11T00:28:24.166Z,13.99
2018-03-11T00:29:04.653Z,14.06
2018-03-11T00:29:45.178Z,13.91
2018-03-11T00:30:25.633Z,13.96
2018-03-11T00:31:06.098Z,13.92
2018-03-11T00:31:46.643Z,13.99
2018-03-11T00:32:27.169Z,13.87
2018-03-11T00:33:07.619Z,13.87
2018-03-11T00:33:48.118Z,13.91
2018-03-11T00:34:28.634Z,13.82
2018-03-11T00:35:09.039Z,13.78
2018-03-11T00:35:49.604Z,13.81
2018-03-11T00:36:30.085Z,13.87
2018-03-11T00:37:10.680Z,13.84
2018-03-11T00:37:51.194Z,13.92
2018-03-11T00:38:31.657Z,13.99
2018-03-11T00:39:12.197Z,13.95
2018-03-11T00:39:52.651Z,13.82
2018-03-11T00:40:33.216Z,13.87
2018-03-11T00:41:13.600Z,13.87
2018-03-11T00:41:54.164Z,13.91
2018-03-11T00:42:34.675Z,13.84
2018-03-11T00:43:15.193Z,13.91
2018-03-11T00:43:55.676Z,14.04
2018-03-11T00:44:36.175Z,13.91
2018-03-11T00:45:16.654Z,13.97
2018-03-11T00:45:57.151Z,13.97
2018-03-11T00:46:37.687Z,13.84
2018-03-11T00:47:18.193Z,13.96
2018-03-11T00:47:58.733Z,13.92
2018-03-11T00:48:39.459Z,13.84
2018-03-11T00:49:20.012Z,13.85
2018-03-11T00:50:00.453Z,13.88
2018-03-11T00:50:40.952Z,13.87
2018-03-11T00:51:21.480Z,13.91
2018-03-11T00:52:01.928Z,13.89
2018-03-11T00:52:42.435Z,13.88
2018-03-11T00:53:22.954Z,13.84
2018-03-11T00:54:03.426Z,13.95
2018-03-11T00:54:43.899Z,13.87
2018-03-11T00:55:24.429Z,13.92
2018-03-11T00:56:04.896Z,13.99
2018-03-11T00:56:45.464Z,13.92
2018-03-11T00:57:25.929Z,13.78
2018-03-11T00:58:06.399Z,13.79
2018-03-11T00:58:46.899Z,13.71
2018-03-11T00:59:27.473Z,13.78
2018-03-11T01:00:07.922Z,13.88
2018-03-11T01:00:48.439Z,13.92
2018-03-11T01:01:28.892Z,13.91
2018-03-11T01:02:09.387Z,13.95
2018-03-11T01:02:49.996Z,13.82
2018-03-11T01:03:30.500Z,13.85
2018-03-11T01:04:11.143Z,13.85
2018-03-11T01:04:51.569Z,13.84
2018-03-11T01:05:32.101Z,13.87
2018-03-11T01:06:12.636Z,13.91
2018-03-11T01:06:53.122Z,13.84
2018-03-11T01:07:33.549Z,13.91
2018-03-11T01:08:14.134Z,13.88
2018-03-11T01:08:54.591Z,13.85
2018-03-11T01:09:35.163Z,13.78
2018-03-11T01:10:15.642Z,13.78
2018-03-11T01:10:56.076Z,13.79
2018-03-11T01:11:36.579Z,13.84
2018-03-11T01:12:16.997Z,13.89
2018-03-11T01:12:57.535Z,13.91
2018-03-11T01:13:38.067Z,14
2018-03-11T01:14:18.617Z,13.92
2018-03-11T01:14:59.042Z,13.84
2018-03-11T01:15:39.532Z,13.84
2018-03-11T01:16:20.110Z,13.87
2018-03-11T01:17:00.897Z,13.99
2018-03-11T01:17:41.333Z,13.97
2018-03-11T01:18:21.826Z,13.97
2018-03-11T01:19:02.353Z,14.09
2018-03-11T01:19:42.796Z,14.07
2018-03-11T01:20:23.297Z,13.95
2018-03-11T01:21:03.741Z,13.95
2018-03-11T01:21:44.222Z,13.97
2018-03-11T01:22:24.711Z,14
2018-03-11T01:23:05.199Z,14.04
2018-03-11T01:23:45.776Z,14.06
2018-03-11T01:24:26.197Z,14.04
2018-03-11T01:25:06.709Z,14.04
2018-03-11T01:25:47.254Z,13.99
2018-03-11T01:26:27.780Z,14.03
2018-03-11T01:27:08.201Z,14.03
2018-03-11T01:27:48.752Z,14.06
2018-03-11T01:28:29.277Z,14.06
2018-03-11T01:29:09.750Z,14.15
2018-03-11T01:29:50.299Z,14.06
2018-03-11T01:30:30.708Z,14.04
2018-03-11T01:31:11.189Z,14.15
2018-03-11T01:31:51.700Z,14.02
2018-03-11T01:32:32.156Z,14.12
2018-03-11T01:33:12.763Z,14.17
2018-03-11T01:33:53.168Z,14.09
2018-03-11T01:34:33.797Z,14.15
2018-03-11T01:35:14.151Z,14.06
2018-03-11T01:35:54.650Z,14.17
2018-03-11T01:36:35.150Z,14.17
2018-03-11T01:37:15.696Z,14.15
2018-03-11T01:37:56.240Z,14.22
2018-03-11T01:38:36.806Z,14.09
2018-03-11T01:39:17.367Z,13.89
2018-03-11T01:39:57.848Z,14.02
2018-03-11T01:40:38.316Z,14.09
2018-03-11T01:41:18.858Z,14.03
2018-03-11T01:41:59.388Z,13.84
2018-03-11T01:42:39.889Z,13.97
2018-03-11T01:43:20.303Z,14.04
2018-03-11T01:44:00.801Z,14.06
2018-03-11T01:44:41.230Z,14.03
2018-03-11T01:45:21.780Z,13.92
2018-03-11T01:46:02.239Z,14.07
2018-03-11T01:46:42.720Z,13.97
2018-03-11T01:47:23.247Z,13.88
2018-03-11T01:48:03.679Z,13.97
2018-03-11T01:48:44.147Z,13.99
2018-03-11T01:49:24.616Z,13.87
2018-03-11T01:50:05.161Z,14.02
2018-03-11T01:50:45.566Z,14.02
2018-03-11T01:51:26.142Z,14.07
2018-03-11T01:52:06.628Z,13.99
2018-03-11T01:52:47.139Z,14.09
2018-03-11T01:53:27.627Z,14.09
2018-03-11T01:54:08.109Z,14.12
2018-03-11T01:54:48.588Z,14.1
2018-03-11T01:55:29.109Z,14.22
2018-03-11T01:56:09.634Z,14.17
2018-03-11T01:56:50.023Z,14.14
2018-03-11T01:57:30.580Z,14.18
2018-03-11T01:58:11.254Z,14.2
2018-03-11T01:58:51.978Z,14.12
2018-03-11T01:59:32.477Z,14.14
2018-03-11T02:00:12.944Z,14.07
2018-03-11T02:00:53.441Z,14.12
2018-03-11T02:01:33.897Z,14.04
2018-03-11T02:02:14.397Z,14.09
2018-03-11T02:02:54.931Z,14.14
2018-03-11T02:03:35.525Z,14.17
2018-03-11T02:04:16.063Z,14.15
2018-03-11T02:04:56.561Z,14.14
2018-03-11T02:05:37.042Z,14.09
2018-03-11T02:06:17.512Z,14.06
2018-03-11T02:06:58.006Z,14.03
2018-03-11T02:07:38.660Z,14.02
2018-03-11T02:08:19.058Z,14.14
2018-03-11T02:08:59.580Z,14.18
2018-03-11T02:09:40.055Z,14.21
2018-03-11T02:10:20.552Z,14.17
2018-03-11T02:11:01.070Z,14.14
2018-03-11T02:11:41.598Z,14.17
2018-03-11T02:12:22.020Z,14.15
2018-03-11T02:13:02.526Z,14.21
2018-03-11T02:13:43.028Z,14.18
2018-03-11T02:14:23.487Z,14.24
2018-03-11T02:15:04.022Z,14.18
2018-03-11T02:15:44.516Z,14.21
2018-03-11T02:16:24.987Z,14.17
2018-03-11T02:17:05.460Z,14.15
2018-03-11T02:17:45.965Z,14.24
2018-03-11T02:18:26.457Z,14.18
2018-03-11T02:19:06.969Z,14.17
2018-03-11T02:19:47.460Z,14.15
2018-03-11T02:20:28.025Z,14.18
2018-03-11T02:21:08.461Z,14.15
2018-03-11T02:21:48.951Z,14.2
2018-03-11T02:22:29.424Z,14.17
2018-03-11T02:23:09.973Z,14.15
2018-03-11T02:23:50.474Z,14.09
2018-03-11T02:24:30.882Z,14.15
2018-03-11T02:25:11.415Z,14.15
2018-03-11T02:25:52.048Z,14.18
2018-03-11T02:26:32.474Z,14.21
2018-03-11T02:27:12.957Z,14.17
2018-03-11T02:27:53.496Z,14.12
2018-03-11T02:28:33.994Z,14.18
2018-03-11T02:29:14.407Z,14.2
2018-03-11T02:29:54.898Z,14.18
2018-03-11T02:30:35.362Z,14.21
2018-03-11T02:31:15.888Z,14.27
2018-03-11T02:31:56.348Z,14.24
2018-03-11T02:32:36.842Z,14.25
2018-03-11T02:33:17.367Z,14.22
2018-03-11T02:33:57.907Z,14.17
2018-03-11T02:34:38.313Z,14.12
2018-03-11T02:35:18.840Z,14.12
2018-03-11T02:35:59.330Z,14
2018-03-11T02:36:39.846Z,14.09
2018-03-11T02:37:20.276Z,14.07
2018-03-11T02:38:00.770Z,14.09
2018-03-11T02:38:41.248Z,14.17
2018-03-11T02:39:21.808Z,14.12
2018-03-11T02:40:02.353Z,14.18
2018-03-11T02:40:42.766Z,14.2
2018-03-11T02:41:23.261Z,14.14
2018-03-11T02:42:03.749Z,14.18
2018-03-11T02:42:44.228Z,14.24
2018-03-11T02:43:24.710Z,14.18
2018-03-11T02:44:05.174Z,14.18
2018-03-11T02:44:45.656Z,14.03
2018-03-11T02:45:26.199Z,14.17
2018-03-11T02:46:06.680Z,14.18
2018-03-11T02:46:47.132Z,14.2
2018-03-11T02:47:27.611Z,14.09
2018-03-11T02:48:08.116Z,14.04
2018-03-11T02:48:48.570Z,14.22
2018-03-11T02:49:29.071Z,14.15
2018-03-11T02:50:09.560Z,14.17
2018-03-11T02:50:50.023Z,14.15
2018-03-11T02:51:30.525Z,14.12
2018-03-11T02:52:11.051Z,14.21
2018-03-11T02:52:51.554Z,14.22
2018-03-11T02:53:32.053Z,14.25
2018-03-11T02:54:12.547Z,14.27
2018-03-11T02:54:53.053Z,14.15
2018-03-11T02:55:33.549Z,14.2
2018-03-11T02:56:14.052Z,14.25
2018-03-11T02:56:54.553Z,14.27
2018-03-11T02:57:35.065Z,14.32
2018-03-11T02:58:15.543Z,14.27
2018-03-11T02:58:56.057Z,14.33
2018-03-11T02:59:36.558Z,14.15
2018-03-11T03:00:17.053Z,14.21
2018-03-11T03:00:57.592Z,14.17
2018-03-11T03:01:38.113Z,14.17
2018-03-11T03:02:18.566Z,14.18
2018-03-11T03:02:59.055Z,14.2
2018-03-11T03:03:39.588Z,14.21
2018-03-11T03:04:20.094Z,14.25
2018-03-11T03:05:00.633Z,14.22
2018-03-11T03:05:41.096Z,14.25
2018-03-11T03:06:21.580Z,14.24
2018-03-11T03:07:02.084Z,14.15
2018-03-11T03:07:42.558Z,14.29
2018-03-11T03:08:23.063Z,14.22
2018-03-11T03:09:03.579Z,14.27
2018-03-11T03:09:44.032Z,14.25
2018-03-11T03:10:24.550Z,14.24
2018-03-11T03:11:05.044Z,14.24
2018-03-11T03:11:45.555Z,14.21
2018-03-11T03:12:26.069Z,14.35
2018-03-11T03:13:06.555Z,14.33
2018-03-11T03:13:47.058Z,14.27
2018-03-11T03:14:27.543Z,14.29
2018-03-11T03:15:08.056Z,14.17
2018-03-11T03:15:48.558Z,14.25
2018-03-11T03:16:29.058Z,14.2
2018-03-11T03:17:09.563Z,14.28
2018-03-11T03:17:50.046Z,14.29
2018-03-11T03:18:30.548Z,14.27
2018-03-11T03:19:11.064Z,14.17
2018-03-11T03:19:51.590Z,14.18
2018-03-11T03:20:32.080Z,14.06
2018-03-11T03:21:12.585Z,14.04
2018-03-11T03:21:53.070Z,14.04
2018-03-11T03:22:33.572Z,14.18
2018-03-11T03:23:14.051Z,14.21
2018-03-11T03:23:54.544Z,14.15
2018-03-11T03:24:35.086Z,14.1
2018-03-11T03:25:15.520Z,14.1
2018-03-11T03:25:56.035Z,14.15
2018-03-11T03:26:36.515Z,14.1
2018-03-11T03:27:17.016Z,13.99
2018-03-11T03:27:57.505Z,14.07
2018-03-11T03:28:38.067Z,14.07
2018-03-11T03:29:18.593Z,14.06
2018-03-11T03:29:59.087Z,14.07
2018-03-11T03:30:39.553Z,14.17
2018-03-11T03:31:19.983Z,14.18
2018-03-11T03:32:00.485Z,14.15
2018-03-11T03:32:40.979Z,14.07
2018-03-11T03:33:21.415Z,14.12
2018-03-11T03:34:01.889Z,14.03
2018-03-11T03:34:42.411Z,14
2018-03-11T03:35:22.879Z,13.91
2018-03-11T03:36:03.344Z,13.91
2018-03-11T03:36:43.848Z,13.99
2018-03-11T03:37:24.360Z,13.92
2018-03-11T03:38:04.862Z,14.02
2018-03-11T03:38:45.361Z,13.85
2018-03-11T03:39:25.858Z,13.78
2018-03-11T03:40:06.350Z,13.78
2018-03-11T03:40:46.842Z,13.75
2018-03-11T03:41:27.327Z,13.87
2018-03-11T03:42:07.847Z,13.95
2018-03-11T03:42:48.317Z,13.84
2018-03-11T03:43:28.816Z,13.85
2018-03-11T03:44:09.338Z,13.79
2018-03-11T03:44:49.830Z,13.77
2018-03-11T03:45:30.336Z,13.75
2018-03-11T03:46:10.816Z,13.84
2018-03-11T03:46:51.318Z,13.78
2018-03-11T03:47:31.826Z,13.66
2018-03-11T03:48:12.333Z,13.73
2018-03-11T03:48:52.818Z,13.77
2018-03-11T03:49:33.344Z,13.7
2018-03-11T03:50:13.811Z,13.71
2018-03-11T03:50:54.300Z,13.66
2018-03-11T03:51:34.813Z,13.64
2018-03-11T03:52:15.302Z,13.62
2018-03-11T03:52:55.761Z,13.62
2018-03-11T03:53:36.257Z,13.67
2018-03-11T03:54:16.766Z,13.67
2018-03-11T03:54:57.272Z,13.62
2018-03-11T03:55:37.774Z,13.62
2018-03-11T03:56:18.268Z,13.62
2018-03-11T03:56:58.804Z,13.62
2018-03-11T03:57:39.313Z,13.45
2018-03-11T03:58:19.780Z,13.44
2018-03-11T03:59:00.314Z,13.38
2018-03-11T03:59:40.783Z,13.28
2018-03-11T04:00:21.283Z,13.29
2018-03-11T04:01:01.771Z,13.28
2018-03-11T04:01:42.276Z,13.39
2018-03-11T04:02:22.787Z,13.33
2018-03-11T04:03:03.261Z,13.25
2018-03-11T04:03:43.744Z,13.32
2018-03-11T04:04:24.324Z,13.33
2018-03-11T04:05:04.753Z,13.32
2018-03-11T04:05:45.235Z,13.32
2018-03-11T04:06:25.747Z,13.36
2018-03-11T04:07:06.229Z,13.44
2018-03-11T04:07:46.740Z,13.51
2018-03-11T04:08:27.242Z,13.59
2018-03-11T04:09:07.723Z,13.45
2018-03-11T04:09:48.287Z,13.51
2018-03-11T04:10:28.732Z,13.42
2018-03-11T04:11:09.214Z,13.46
2018-03-11T04:11:49.704Z,13.45
2018-03-11T04:12:30.212Z,13.32
2018-03-11T04:13:10.731Z,13.45
2018-03-11T04:13:51.216Z,13.59
2018-03-11T04:14:31.760Z,13.49
2018-03-11T04:15:12.231Z,13.36
2018-03-11T04:15:52.686Z,13.42
2018-03-11T04:16:33.212Z,13.46
2018-03-11T04:17:13.686Z,13.57
2018-03-11T04:17:54.192Z,13.42
2018-03-11T04:18:34.673Z,13.39
2018-03-11T04:19:15.223Z,13.19
2018-03-11T04:19:55.681Z,13
2018-03-11T04:20:36.149Z,12.97
2018-03-11T04:21:16.660Z,13.12
2018-03-11T04:21:57.150Z,13.05
2018-03-11T04:22:37.644Z,13.12
2018-03-11T04:23:18.176Z,13.11
2018-03-11T04:23:58.649Z,13.22
2018-03-11T04:24:39.138Z,13.25
2018-03-11T04:25:19.605Z,13.3
2018-03-11T04:26:00.195Z,13.26
2018-03-11T04:26:40.680Z,13.26
2018-03-11T04:27:21.186Z,13.22
2018-03-11T04:28:01.687Z,13.1
2018-03-11T04:28:42.185Z,13.1
2018-03-11T04:29:22.665Z,13.1
2018-03-11T04:30:03.187Z,13.11
2018-03-11T04:30:43.669Z,13.11
2018-03-11T04:31:24.183Z,13.14
2018-03-11T04:32:04.666Z,13.11
2018-03-11T04:32:45.169Z,13.17
2018-03-11T04:33:25.648Z,13.15
2018-03-11T04:34:06.134Z,13.05
2018-03-11T04:34:46.634Z,13.22
2018-03-11T04:35:27.150Z,13.12
2018-03-11T04:36:07.674Z,13.19
2018-03-11T04:36:48.133Z,13.17
2018-03-11T04:37:28.645Z,13.2
2018-03-11T04:38:09.093Z,13.2
2018-03-11T04:38:49.609Z,13.23
2018-03-11T04:39:30.164Z,13.14
2018-03-11T04:40:10.627Z,13.28
2018-03-11T04:40:51.126Z,13.25
2018-03-11T04:41:31.642Z,13.08
2018-03-11T04:42:12.103Z,13.19
2018-03-11T04:42:52.646Z,13.22
2018-03-11T04:43:33.157Z,13.23
2018-03-11T04:44:13.651Z,13.2
2018-03-11T04:44:54.176Z,13.23
2018-03-11T04:45:34.638Z,13.23
2018-03-11T04:46:15.153Z,13.2
2018-03-11T04:46:55.628Z,13.22
2018-03-11T04:47:36.142Z,13.23
2018-03-11T04:48:16.620Z,13.2
2018-03-11T04:48:57.119Z,13.14
2018-03-11T04:49:37.606Z,13.12
2018-03-11T04:50:18.099Z,13.07
2018-03-11T04:50:58.597Z,13.15
2018-03-11T04:51:39.080Z,13.15
2018-03-11T04:52:19.602Z,13.08
2018-03-11T04:53:00.086Z,13.07
2018-03-11T04:53:40.578Z,12.97
2018-03-11T04:54:21.080Z,12.97
2018-03-11T04:55:01.570Z,12.92
2018-03-11T04:55:42.054Z,12.92
2018-03-11T04:56:22.551Z,13.05
2018-03-11T04:57:03.086Z,13
2018-03-11T04:57:43.581Z,13.1
2018-03-11T04:58:24.078Z,13.12
2018-03-11T04:59:04.586Z,13.12
2018-03-11T04:59:45.082Z,12.96
2018-03-11T05:00:25.570Z,13.04
2018-03-11T05:01:06.065Z,13.05
2018-03-11T05:01:46.608Z,13.05
2018-03-11T05:02:27.107Z,12.95
2018-03-11T05:03:07.590Z,13.08
2018-03-11T05:03:48.066Z,13
2018-03-11T05:04:28.594Z,12.97
2018-03-11T05:05:09.108Z,13.01
2018-03-11T05:05:49.600Z,12.97
2018-03-11T05:06:30.083Z,13.03
2018-03-11T05:07:10.633Z,12.96
2018-03-11T05:07:51.162Z,12.95
2018-03-11T05:08:31.605Z,12.93
2018-03-11T05:09:12.147Z,12.93
2018-03-11T05:09:52.639Z,12.97
2018-03-11T05:10:33.130Z,12.95
2018-03-11T05:11:13.640Z,13.01
2018-03-11T05:11:54.115Z,12.96
2018-03-11T05:12:34.596Z,12.96
2018-03-11T05:13:15.096Z,12.89
2018-03-11T05:13:55.595Z,12.89
2018-03-11T05:14:36.145Z,12.92
2018-03-11T05:15:16.590Z,12.82
2018-03-11T05:15:57.109Z,12.83
2018-03-11T05:16:37.610Z,12.93
2018-03-11T05:17:18.102Z,12.96
2018-03-11T05:17:58.604Z,12.89
2018-03-11T05:18:39.096Z,12.96
2018-03-11T05:19:19.628Z,12.96
2018-03-11T05:20:00.113Z,12.89
2018-03-11T05:20:40.641Z,12.96
2018-03-11T05:21:21.141Z,12.97
2018-03-11T05:22:01.633Z,12.92
2018-03-11T05:22:42.143Z,12.93
2018-03-11T05:23:22.692Z,12.96
2018-03-11T05:24:03.247Z,12.93
2018-03-11T05:24:43.755Z,12.92
2018-03-11T05:25:24.285Z,12.96
2018-03-11T05:26:04.765Z,12.95
2018-03-11T05:26:45.257Z,12.96
2018-03-11T05:27:25.768Z,12.97
2018-03-11T05:28:06.288Z,12.89
2018-03-11T05:28:46.791Z,12.89
2018-03-11T05:29:27.276Z,12.82
2018-03-11T05:30:07.774Z,12.96
2018-03-11T05:30:48.302Z,12.93
2018-03-11T05:31:28.797Z,12.96
2018-03-11T05:32:09.306Z,12.93
2018-03-11T05:32:49.798Z,12.95
2018-03-11T05:33:30.308Z,12.85
2018-03-11T05:34:10.783Z,12.93
2018-03-11T05:34:51.293Z,12.92
2018-03-11T05:35:31.790Z,12.85
2018-03-11T05:36:12.269Z,12.83
2018-03-11T05:36:52.774Z,12.83
2018-03-11T05:37:33.303Z,12.93
2018-03-11T05:38:13.802Z,12.96
2018-03-11T05:38:54.320Z,12.95
2018-03-11T05:39:34.820Z,12.85
2018-03-11T05:40:15.350Z,12.9
2018-03-11T05:40:55.819Z,12.82
2018-03-11T05:41:36.328Z,12.78
2018-03-11T05:42:16.839Z,12.89
2018-03-11T05:42:57.332Z,12.74
2018-03-11T05:43:37.846Z,12.67
2018-03-11T05:44:18.370Z,12.64
2018-03-11T05:44:58.866Z,12.67
2018-03-11T05:45:39.374Z,12.71
2018-03-11T05:46:19.855Z,12.77
2018-03-11T05:47:00.344Z,12.75
2018-03-11T05:47:40.915Z,12.74
2018-03-11T05:48:21.413Z,12.74
2018-03-11T05:49:01.964Z,12.67
2018-03-11T05:49:42.470Z,12.68
2018-03-11T05:50:22.956Z,12.67
2018-03-11T05:51:03.479Z,12.67
2018-03-11T05:51:43.999Z,12.67
2018-03-11T05:52:24.485Z,12.74
2018-03-11T05:53:04.980Z,12.67
2018-03-11T05:53:45.493Z,12.74
2018-03-11T05:54:25.983Z,12.64
2018-03-11T05:55:06.485Z,12.68
2018-03-11T05:55:46.983Z,12.71
2018-03-11T05:56:27.467Z,12.71
2018-03-11T05:57:07.929Z,12.68
2018-03-11T05:57:48.451Z,12.89
2018-03-11T05:58:28.991Z,12.86
2018-03-11T05:59:09.493Z,12.85
2018-03-11T05:59:49.995Z,12.83
2018-03-11T06:00:30.451Z,12.86
2018-03-11T06:01:10.960Z,12.89
2018-03-11T06:03:04.031Z,12.92
2018-03-11T06:03:44.525Z,12.85
2018-03-11T06:04:25.029Z,12.89
2018-03-11T06:05:05.517Z,12.93
2018-03-11T06:05:46.036Z,12.93
2018-03-11T06:06:26.536Z,12.97
2018-03-11T06:07:07.037Z,12.95
2018-03-11T06:07:47.525Z,12.97
2018-03-11T06:08:28.011Z,12.95
2018-03-11T06:09:08.545Z,13.01
2018-03-11T06:09:49.053Z,12.96
2018-03-11T06:11:28.680Z,12.95
2018-03-11T06:12:09.184Z,13
2018-03-11T06:12:49.708Z,12.96
2018-03-11T06:13:30.249Z,12.9
2018-03-11T06:14:10.691Z,13.01
2018-03-11T06:14:51.220Z,12.95
2018-03-11T06:15:31.742Z,12.93
2018-03-11T06:16:12.165Z,12.86
2018-03-11T06:16:52.787Z,12.82
2018-03-11T06:17:33.179Z,12.85
2018-03-11T06:18:13.616Z,12.96
2018-03-11T06:18:54.131Z,12.95
2018-03-11T06:19:34.652Z,12.97
2018-03-11T06:20:15.113Z,13
2018-03-11T06:20:55.651Z,13.01
2018-03-11T06:21:36.151Z,12.96
2018-03-11T06:22:16.609Z,13
2018-03-11T06:22:57.151Z,13.05
2018-03-11T06:23:37.607Z,13.07
2018-03-11T06:24:18.129Z,13.11
2018-03-11T06:24:58.646Z,13.08
2018-03-11T06:25:39.114Z,13.12
2018-03-11T06:26:19.658Z,13.08
2018-03-11T06:27:00.160Z,13.11
2018-03-11T06:27:40.630Z,13.11
2018-03-11T06:28:21.471Z,13.22
2018-03-11T06:29:01.965Z,13.11
2018-03-11T06:29:43.177Z,13.07
2018-03-11T06:30:24.704Z,13.1
2018-03-11T06:31:05.969Z,12.96
2018-03-11T06:31:49.942Z,13.1
2018-03-11T06:32:31.120Z,13.1
2018-03-11T06:33:11.900Z,13
2018-03-11T06:33:52.400Z,13.11
2018-03-11T06:34:33.711Z,13.08
2018-03-11T06:35:14.607Z,13.2
2018-03-11T06:35:55.109Z,13.23
2018-03-11T06:36:35.624Z,13.14
2018-03-11T06:37:16.131Z,13.22
2018-03-11T06:37:56.644Z,13.33
2018-03-11T06:38:37.134Z,13.38
2018-03-11T06:39:17.646Z,13.38
2018-03-11T06:39:58.134Z,13.38
2018-03-11T06:40:38.648Z,13.33
2018-03-11T06:41:19.162Z,13.41
2018-03-11T06:41:59.640Z,13.44
2018-03-11T06:42:40.137Z,13.42
2018-03-11T06:43:20.656Z,13.36
2018-03-11T06:44:01.173Z,13.36
2018-03-11T06:44:41.675Z,13.39
2018-03-11T06:45:22.171Z,13.51
2018-03-11T06:46:02.678Z,13.44
2018-03-11T06:46:43.171Z,13.57
2018-03-11T06:47:23.651Z,13.59
2018-03-11T06:48:04.178Z,13.6
2018-03-11T06:48:44.698Z,13.67
2018-03-11T06:49:25.179Z,13.55
2018-03-11T06:50:05.693Z,13.57
2018-03-11T06:50:46.197Z,13.52
2018-03-11T06:51:26.764Z,13.59
2018-03-11T06:52:07.266Z,13.67
2018-03-11T06:52:47.771Z,13.63
2018-03-11T06:53:28.277Z,13.69
2018-03-11T06:54:08.753Z,13.71
2018-03-11T06:54:50.886Z,13.64
2018-03-11T06:55:31.364Z,13.73
2018-03-11T06:56:11.893Z,13.81
2018-03-11T06:56:52.325Z,13.79
2018-03-11T06:57:32.848Z,13.84
2018-03-11T06:58:13.370Z,13.81
2018-03-11T06:58:53.826Z,13.75
2018-03-11T06:59:34.346Z,13.63
2018-03-11T07:00:14.881Z,13.77
2018-03-11T07:00:55.358Z,13.7
2018-03-11T07:01:35.875Z,13.84
2018-03-11T07:02:16.351Z,13.87
2018-03-11T07:02:56.869Z,13.84
2018-03-11T07:03:37.363Z,13.89
2018-03-11T07:04:17.979Z,13.81
2018-03-11T07:04:58.481Z,13.87
2018-03-11T07:05:38.870Z,13.85
2018-03-11T07:06:19.374Z,13.77
2018-03-11T07:06:59.857Z,13.84
2018-03-11T07:07:40.370Z,13.91
2018-03-11T07:08:20.897Z,13.96
2018-03-11T07:09:01.290Z,14.07
2018-03-11T07:09:41.824Z,14.06
2018-03-11T07:10:22.288Z,14.09
2018-03-11T07:11:02.787Z,14.1
2018-03-11T07:11:43.300Z,14.1
2018-03-11T07:12:23.829Z,14.09
2018-03-11T07:13:04.330Z,14.18
2018-03-11T07:13:44.845Z,14.1
2018-03-11T07:14:25.332Z,14.04
2018-03-11T07:15:05.872Z,14.06
2018-03-11T07:15:46.333Z,14
2018-03-11T07:16:26.839Z,14.12
2018-03-11T07:17:07.341Z,14.17
2018-03-11T07:17:47.840Z,14.17
2018-03-11T07:18:28.380Z,14.17
2018-03-11T07:19:08.829Z,14.17
2018-03-11T07:19:49.331Z,14.2
2018-03-11T07:20:29.832Z,14.22
2018-03-11T07:21:10.339Z,14.2
2018-03-11T07:21:50.878Z,14.29
2018-03-11T07:22:31.331Z,14.03
2018-03-11T07:23:11.856Z,14
2018-03-11T07:23:52.385Z,14.02
2018-03-11T07:24:32.869Z,14.04
2018-03-11T07:25:13.803Z,14.07
2018-03-11T07:25:54.287Z,14.12
2018-03-11T07:26:34.728Z,14
2018-03-11T07:27:15.561Z,13.82
2018-03-11T07:27:56.126Z,13.89
2018-03-11T07:28:36.579Z,13.67
2018-03-11T07:29:17.483Z,13.84
2018-03-11T07:29:57.984Z,13.88
2018-03-11T07:30:38.599Z,13.81
2018-03-11T07:31:19.522Z,13.75
2018-03-11T07:32:00.101Z,13.88
2018-03-11T07:32:40.558Z,13.91
2018-03-11T07:33:21.082Z,13.91
2018-03-11T07:34:01.601Z,13.88
2018-03-11T07:34:42.281Z,13.82
2018-03-11T07:35:22.744Z,13.69
2018-03-11T07:36:03.338Z,13.67
2018-03-11T07:36:43.732Z,13.64
2018-03-11T07:37:24.223Z,13.63
2018-03-11T07:39:13.833Z,13.11
2018-03-11T07:39:54.330Z,13.07
2018-03-11T07:40:34.824Z,12.96
2018-03-11T07:41:15.338Z,13.11
2018-03-11T07:41:57.021Z,13.1
2018-03-11T07:42:37.851Z,13.01
2018-03-11T07:43:18.490Z,12.97
2018-03-11T07:43:59.009Z,12.96
2018-03-11T07:44:39.456Z,12.85
2018-03-11T07:45:19.942Z,12.74
2018-03-11T07:46:00.617Z,12.9
2018-03-11T07:46:41.128Z,12.85
2018-03-11T07:47:21.608Z,12.92
2018-03-11T07:48:02.126Z,12.93
2018-03-11T07:48:42.582Z,12.93
2018-03-11T07:49:23.340Z,12.82
2018-03-11T07:50:03.784Z,12.85
2018-03-11T07:50:44.237Z,12.75
2018-03-11T07:51:25.115Z,12.56
2018-03-11T07:52:05.939Z,12.39
2018-03-11T07:52:46.590Z,12.34
2018-03-11T07:53:27.229Z,12.27
2018-03-11T07:54:07.648Z,12.41
2018-03-11T07:54:48.099Z,12.64
2018-03-11T07:55:28.838Z,12.57
2018-03-11T07:56:09.433Z,12.7
2018-03-11T07:56:49.872Z,12.71
2018-03-11T07:57:30.415Z,12.7
2018-03-11T07:58:10.944Z,12.65
2018-03-11T07:58:51.662Z,12.68
2018-03-11T07:59:32.007Z,12.75
2018-03-11T08:00:12.484Z,12.59
2018-03-11T08:00:52.972Z,12.53
2018-03-11T08:01:36.148Z,12.5
2018-03-11T08:02:16.586Z,12.39
2018-03-11T08:02:57.109Z,12.5
2018-03-11T08:03:37.581Z,12.54
2018-03-11T08:04:18.089Z,12.52
2018-03-11T08:04:58.588Z,12.41
2018-03-11T08:05:39.197Z,12.47
2018-03-11T08:06:19.681Z,12.54
2018-03-11T08:07:00.276Z,12.68
2018-03-11T08:07:40.740Z,12.65
2018-03-11T08:08:21.647Z,12.59
2018-03-11T08:09:02.255Z,12.62
2018-03-11T08:09:42.615Z,12.42
2018-03-11T08:10:23.102Z,12.49
2018-03-11T08:11:04.224Z,12.38
2018-03-11T08:11:44.722Z,12.45
2018-03-11T08:12:25.152Z,12.32
2018-03-11T08:13:05.743Z,12.46
2018-03-11T08:13:46.227Z,12.46
2018-03-11T08:14:26.937Z,12.53
2018-03-11T08:15:07.410Z,12.59
2018-03-11T08:15:47.927Z,12.72
2018-03-11T08:16:28.397Z,12.62
2018-03-11T08:17:08.918Z,12.75
2018-03-11T08:17:49.367Z,12.7
2018-03-11T08:18:30.068Z,12.77
2018-03-11T08:19:10.658Z,12.65
2018-03-11T08:19:51.161Z,12.7
2018-03-11T08:20:31.656Z,12.65
2018-03-11T08:21:12.147Z,12.7
2018-03-11T08:21:52.611Z,12.83
2018-03-11T08:22:33.096Z,12.87
2018-03-11T08:23:13.610Z,12.77
2018-03-11T08:23:54.127Z,12.89
2018-03-11T08:24:34.594Z,12.77
2018-03-11T08:25:15.102Z,12.7
2018-03-11T08:25:55.627Z,12.68
2018-03-11T08:26:36.069Z,12.72
2018-03-11T08:27:16.768Z,12.74
2018-03-11T08:27:57.307Z,12.86
2018-03-11T08:28:37.761Z,12.79
2018-03-11T08:29:18.272Z,12.95
2018-03-11T08:29:58.797Z,12.95
2018-03-11T08:30:39.448Z,12.86
2018-03-11T08:31:19.960Z,12.87
2018-03-11T08:32:00.561Z,12.78
2018-03-11T08:32:41.026Z,12.77
2018-03-11T08:33:21.600Z,12.75
2018-03-11T08:34:02.084Z,12.72
2018-03-11T08:34:42.608Z,12.71
2018-03-11T08:35:23.066Z,12.83
2018-03-11T08:36:03.616Z,12.85
2018-03-11T08:36:44.044Z,12.75
2018-03-11T08:37:24.562Z,12.97
2018-03-11T08:38:05.049Z,13.01
2018-03-11T08:38:45.540Z,12.93
2018-03-11T08:39:26.004Z,12.93
2018-03-11T08:40:06.536Z,12.93
2018-03-11T08:40:47.007Z,12.79
2018-03-11T08:41:27.491Z,12.79
2018-03-11T08:42:08.009Z,12.83
2018-03-11T08:42:48.475Z,12.86
2018-03-11T08:43:28.920Z,12.92
2018-03-11T08:44:09.401Z,13
2018-03-11T08:44:49.919Z,12.97
2018-03-11T08:45:30.380Z,13.14
2018-03-11T08:46:10.925Z,13.15
2018-03-11T08:46:51.429Z,13.08